createdAt,value
2022-08-18T00:01:09.186Z,38.50837
2022-08-18T00:06:11.169Z,39.1016
2022-08-18T00:11:13.137Z,39.57772
2022-08-18T00:16:14.904Z,39.78941
2022-08-18T00:21:17.289Z,40.4862
2022-08-18T00:26:19.145Z,40.85352
2022-08-18T00:31:20.894Z,40.99569
2022-08-18T00:36:22.892Z,41.40245
2022-08-18T00:41:24.786Z,41.17358
2022-08-18T00:46:26.523Z,40.24358
2022-08-18T00:51:28.731Z,39.77988
2022-08-18T00:56:30.533Z,40.33357
2022-08-18T01:01:32.298Z,40.58213
2022-08-18T01:06:34.197Z,40.83641
2022-08-18T01:11:35.971Z,41.34045
2022-08-18T01:16:37.737Z,41.52303
2022-08-18T01:21:39.611Z,41.53672
2022-08-18T01:26:44.153Z,42.46762
2022-08-18T01:31:54.282Z,42.76141
2022-08-18T01:36:57.125Z,41.40022
2022-08-18T01:41:58.748Z,41.72477
2022-08-18T01:47:00.424Z,42.35618
2022-08-18T01:52:02.384Z,42.10178
2022-08-18T01:57:03.867Z,42.03665
2022-08-18T02:02:05.564Z,41.92672
2022-08-18T02:07:07.501Z,43.90344
2022-08-18T02:12:09.395Z,43.34505
2022-08-18T02:17:11.098Z,44.40751
2022-08-18T02:22:13.123Z,44.86541
2022-08-18T02:27:14.548Z,45.27304
2022-08-18T02:32:16.108Z,44.33384
2022-08-18T02:37:17.565Z,45.81759
2022-08-18T02:42:19.107Z,47.05812
2022-08-18T02:47:20.547Z,47.89866
2022-08-18T02:52:22.417Z,47.70187
2022-08-18T02:57:23.822Z,48.31516
2022-08-18T03:02:25.359Z,47.59413
2022-08-18T03:07:26.851Z,47.47482
2022-08-18T03:12:28.378Z,49.7676
2022-08-18T03:17:29.806Z,50.12618
2022-08-18T03:22:31.502Z,51.4231
2022-08-18T03:27:33.875Z,52.63726
2022-08-18T03:32:35.502Z,53.55029
2022-08-18T03:37:37.505Z,53.35288
2022-08-18T03:42:38.943Z,55.04676
2022-08-18T03:47:40.414Z,52.9007
2022-08-18T03:52:42.359Z,51.74319
2022-08-18T03:57:43.834Z,53.44747
2022-08-18T04:02:45.553Z,51.86418
2022-08-18T04:07:47.336Z,52.10461
2022-08-18T04:12:48.937Z,51.94283
2022-08-18T04:17:56.193Z,53.65728
2022-08-18T04:23:08.557Z,52.54491
2022-08-18T04:28:10.322Z,51.74988
2022-08-18T04:33:12.089Z,50.93243
2022-08-18T04:38:14.101Z,50.09996
2022-08-18T04:43:15.999Z,49.57737
2022-08-18T04:48:17.744Z,48.21925
2022-08-18T04:53:20.203Z,49.81619
2022-08-18T04:58:22.292Z,49.40785
2022-08-18T05:03:24.120Z,48.61419
2022-08-18T05:08:26.166Z,48.16941
2022-08-18T05:13:27.951Z,49.70827
2022-08-18T05:18:30.047Z,49.69976
2022-08-18T05:23:33.497Z,49.51864
2022-08-18T05:28:35.284Z,48.91238
2022-08-18T05:33:37.065Z,50.55844
2022-08-18T05:38:39.074Z,50.04784
2022-08-18T05:43:51.548Z,49.25264
2022-08-18T05:48:54.076Z,48.90808
2022-08-18T05:53:56.286Z,47.09177
2022-08-18T05:58:57.909Z,44.05454
2022-08-18T06:03:59.597Z,44.16084
2022-08-18T06:09:01.212Z,42.40911
2022-08-18T06:14:03.154Z,40.78826
2022-08-18T06:19:04.917Z,40.07835
2022-08-18T06:24:06.853Z,39.11939
2022-08-18T06:29:08.588Z,39.78494
2022-08-18T06:34:10.470Z,39.16672
2022-08-18T06:39:12.514Z,38.64389
2022-08-18T06:44:14.158Z,38.00596
2022-08-18T06:49:15.814Z,33.58685
2022-08-18T06:54:17.791Z,31.20894
2022-08-18T06:59:19.586Z,30.42524
2022-08-18T07:04:21.361Z,29.16785
2022-08-18T07:09:23.172Z,29.00801
2022-08-18T07:14:24.629Z,31.3957
2022-08-18T07:19:26.410Z,30.03379
2022-08-18T07:24:28.763Z,30.05981
2022-08-18T07:29:30.649Z,27.45032
2022-08-18T07:34:32.415Z,25.67665
2022-08-18T07:39:34.250Z,23.70573
2022-08-18T07:44:36.039Z,23.45885
2022-08-18T07:49:46.099Z,23.09819
2022-08-18T07:55:01.819Z,24.6856
2022-08-18T08:00:03.541Z,23.30818
2022-08-18T08:05:05.228Z,23.79114
2022-08-18T08:10:08.893Z,24.22912
2022-08-18T08:15:10.666Z,21.97528
2022-08-18T08:20:12.126Z,22.2609
2022-08-18T08:25:42.909Z,22.69043
2022-08-18T08:30:47.312Z,20.88601
2022-08-18T08:35:50.379Z,20.88356
2022-08-18T08:40:52.364Z,21.48242
2022-08-18T08:45:53.852Z,21.01222
2022-08-18T08:50:55.386Z,20.95745
2022-08-18T08:56:02.203Z,20.40217
2022-08-18T09:01:04.227Z,19.19373
2022-08-18T09:06:05.821Z,19.48674
2022-08-18T09:11:07.411Z,18.54858
2022-08-18T09:16:12.263Z,19.01529
2022-08-18T09:21:15.595Z,18.75857
2022-08-18T09:26:17.452Z,17.65315
2022-08-18T09:31:19.540Z,17.52292
2022-08-18T09:36:21.556Z,18.0508
2022-08-18T09:41:27.854Z,18.9013
2022-08-18T09:46:33.202Z,18.70046
2022-08-18T09:51:34.929Z,18.86088
2022-08-18T09:56:37.384Z,19.2607
2022-08-18T10:01:56.054Z,18.46601
2022-08-18T10:06:58.729Z,17.9997
2022-08-18T10:12:01.622Z,19.37508
2022-08-18T10:17:23.509Z,18.09766
2022-08-18T10:22:35.183Z,17.23566
2022-08-18T10:27:37.680Z,16.77611
2022-08-18T10:32:39.578Z,17.89721
2022-08-18T10:37:41.188Z,17.29717
2022-08-18T10:42:45.167Z,17.81797
2022-08-18T10:47:49.022Z,18.48593
2022-08-18T10:52:54.460Z,17.21877
2022-08-18T10:58:19.012Z,15.89809
2022-08-18T11:03:50.257Z,15.57309
2022-08-18T11:08:55.023Z,16.38843
2022-08-18T11:13:59.325Z,15.67751
2022-08-18T11:19:01.234Z,15.59444
2022-08-18T11:24:03.161Z,16.15154
2022-08-18T11:29:05.536Z,15.14518
2022-08-18T11:34:07.484Z,15.06433
2022-08-18T11:39:09.398Z,13.88717
2022-08-18T11:44:11.413Z,12.92318
2022-08-18T11:49:13.224Z,12.82229
2022-08-18T11:54:17.610Z,13.72103
2022-08-18T11:59:19.741Z,13.01411
2022-08-18T12:04:21.734Z,13.93437
2022-08-18T12:09:45.251Z,13.41726
2022-08-18T12:15:17.116Z,13.43419
2022-08-18T12:20:19.722Z,13.85525
2022-08-18T13:09:54.288Z,14.67392
2022-08-18T13:14:56.035Z,14.64693
2022-08-18T13:19:59.633Z,14.81725
2022-08-18T13:25:03.988Z,15.06242
2022-08-18T13:30:30.269Z,15.0903
2022-08-18T13:35:37.884Z,14.9862
2022-08-18T13:40:47.135Z,15.11512
2022-08-18T13:45:53.237Z,14.97025
2022-08-18T13:50:57.704Z,14.79123
2022-08-18T13:55:59.627Z,14.81764
2022-08-18T14:01:16.248Z,14.87273
2022-08-18T14:06:39.719Z,15.38085
2022-08-18T14:11:53.651Z,15.55898
2022-08-18T14:16:55.529Z,15.76558
2022-08-18T14:21:58.589Z,16.34049
2022-08-18T14:27:00.049Z,16.1016
2022-08-18T14:32:02.546Z,16.29297
2022-08-18T14:37:04.435Z,16.42504
2022-08-18T14:42:06.591Z,16.55228
2022-08-18T14:47:10.027Z,16.66651
2022-08-18T14:52:14.481Z,17.21163
2022-08-18T14:57:16.630Z,17.37956
2022-08-18T15:02:18.487Z,17.53311
2022-08-18T15:07:23.758Z,17.79857
2022-08-18T15:12:26.132Z,18.50628
2022-08-18T15:17:28.093Z,18.61378
2022-08-18T15:22:31.381Z,18.79101
2022-08-18T15:27:42.532Z,19.62196
2022-08-18T15:32:44.958Z,19.63147
2022-08-18T15:37:46.673Z,19.88157
2022-08-18T15:42:48.547Z,20.46208
2022-08-18T15:47:50.614Z,20.89346
2022-08-18T15:57:57.091Z,21.53858
2022-08-18T16:02:59.959Z,21.63024
2022-08-18T16:08:01.454Z,21.83305
2022-08-18T16:13:03.403Z,22.04195
2022-08-18T16:18:05.124Z,22.22727
2022-08-18T16:23:06.838Z,22.30613
2022-08-18T16:28:08.494Z,22.55776
2022-08-18T16:33:09.938Z,22.47052
2022-08-18T16:38:11.805Z,23.06223
2022-08-18T16:43:13.541Z,23.51615
2022-08-18T16:48:16.909Z,23.3064
2022-08-18T16:53:18.544Z,23.24266
2022-08-18T16:58:20.459Z,23.67667
2022-08-18T17:03:22.402Z,23.88467
2022-08-18T17:08:24.160Z,23.49387
2022-08-18T17:13:26.052Z,23.02451
2022-08-18T17:18:27.934Z,23.62638
2022-08-18T17:23:29.663Z,23.70075
2022-08-18T17:28:31.435Z,23.54501
2022-08-18T17:33:37.130Z,24.20472
2022-08-18T17:38:38.906Z,23.63078
2022-08-18T17:48:42.884Z,24.20464
2022-08-18T17:53:45.951Z,24.04429
2022-08-18T17:58:47.661Z,24.03225
2022-08-18T18:03:49.137Z,24.56839
2022-08-18T18:08:50.771Z,24.83838
2022-08-18T18:13:52.584Z,24.94161
2022-08-18T18:18:54.087Z,24.66255
2022-08-18T18:24:01.588Z,24.91171
2022-08-18T18:29:06.257Z,25.62333
2022-08-18T18:34:27.657Z,26.30551
2022-08-18T18:39:34.254Z,26.82479
2022-08-18T18:44:36.333Z,26.86084
2022-08-18T18:49:38.006Z,27.55905
2022-08-18T18:54:39.566Z,28.09797
2022-08-18T18:59:41.111Z,28.13195
2022-08-18T19:04:42.624Z,28.0067
2022-08-18T19:09:46.208Z,27.95062
2022-08-18T19:14:57.644Z,28.59953
2022-08-18T19:20:01.871Z,28.50434
2022-08-18T19:25:03.342Z,28.37663
2022-08-18T19:30:05.053Z,28.12736
2022-08-18T19:35:12.177Z,29.75518
2022-08-18T19:40:14.056Z,30.15713
2022-08-18T19:45:17.272Z,29.71289
2022-08-18T19:50:19.037Z,30.61504
2022-08-18T19:55:20.529Z,31.32257
2022-08-18T20:00:22.182Z,30.81485
2022-08-18T20:05:23.629Z,30.52682
2022-08-18T20:10:25.086Z,30.90181
2022-08-18T20:15:27.140Z,30.62603
2022-08-18T20:20:29.183Z,32.31496
2022-08-18T20:25:30.997Z,31.41876
2022-08-18T20:30:32.972Z,31.26808
2022-08-18T20:35:34.871Z,31.25529
2022-08-18T20:40:36.679Z,31.68567
2022-08-18T20:45:42.535Z,32.12198
2022-08-18T20:50:47.646Z,32.82874
2022-08-18T20:55:49.190Z,33.35714
2022-08-18T21:00:54.823Z,33.31996
2022-08-18T21:05:56.449Z,34.18553
2022-08-18T21:10:57.872Z,34.63007
2022-08-18T21:15:59.539Z,35.10603
2022-08-18T21:21:01.115Z,35.28703
2022-08-18T21:26:02.602Z,35.67443
2022-08-18T21:31:42.838Z,36.24666
2022-08-18T21:36:46.019Z,36.23207
2022-08-18T21:41:47.764Z,38.0846
2022-08-18T21:46:49.796Z,36.7374
2022-08-18T21:51:51.256Z,37.48942
2022-08-18T21:56:52.725Z,37.96314
2022-08-18T22:01:54.426Z,38.20116
2022-08-18T22:06:56.176Z,38.60769
2022-08-18T22:12:01.107Z,38.99831
2022-08-18T22:17:04.205Z,39.16801
2022-08-18T22:22:05.605Z,39.49139
2022-08-18T22:27:07.392Z,40.17795
2022-08-18T22:32:09.296Z,39.76876
2022-08-18T22:37:11.040Z,40.41842
2022-08-18T22:42:12.841Z,40.74983
2022-08-18T22:47:14.958Z,41.01239
2022-08-18T22:52:16.755Z,42.33184
2022-08-18T22:57:18.603Z,41.83875
2022-08-18T23:02:25.835Z,42.15907
2022-08-18T23:07:27.630Z,45.1222
2022-08-18T23:12:29.398Z,46.31117
2022-08-18T23:17:31.363Z,45.57663
2022-08-18T23:22:33.138Z,46.56683
2022-08-18T23:27:34.922Z,47.4089
2022-08-18T23:32:36.511Z,48.13385
2022-08-18T23:37:38.385Z,47.68133
2022-08-18T23:42:40.148Z,49.79646
2022-08-18T23:47:42.573Z,50.04596
2022-08-18T23:52:44.362Z,51.45192
2022-08-18T23:57:49.159Z,51.771
